Time;durP1;ratioP1;P1;durP2;ratioP2;P2;SDS_P1;SDS_P2;PMS_P1;PMS_P2;Temp;Humidity;BMP_temperature;BMP_pressure;BME280_temperature;BME280_humidity;BME280_pressure;Samples;Min_cycle;Max_cycle;Signal;HPM_P1;HPM_P2
2024/05/03 00:02:17;;;;;;;;;;;14.90;99.90;;;;;;5432515;26;20006;-66
2024/05/03 00:04:42;;;;;;;54.08;35.30;;;14.90;99.90;;;;;;5467410;26;20608;-67
2024/05/03 00:07:08;;;;;;;;;;;14.90;99.90;;;;;;5464151;26;20001;-67
2024/05/03 00:09:33;;;;;;;55.35;34.92;;;14.90;99.90;;;;;;5434502;26;19924;-67
2024/05/03 00:11:59;;;;;;;;;;;15.00;99.90;;;;;;5472266;26;19998;-67
2024/05/03 00:14:25;;;;;;;53.85;35.05;;;14.90;99.90;;;;;;5462720;26;20116;-67
2024/05/03 00:16:51;;;;;;;54.80;35.88;;;15.00;99.90;;;;;;5463215;26;20076;-67
2024/05/03 00:19:17;;;;;;;55.78;36.53;;;14.90;99.90;;;;;;5430560;26;20017;-67
2024/05/03 00:21:42;;;;;;;53.90;36.60;;;15.00;99.90;;;;;;5432931;26;20816;-67
2024/05/03 00:24:08;;;;;;;58.50;36.38;;;15.00;99.90;;;;;;5432592;26;19997;-67
2024/05/03 00:26:34;;;;;;;;;;;15.00;99.90;;;;;;5435810;26;20448;-67
2024/05/03 00:28:59;;;;;;;55.50;37.55;;;15.00;99.90;;;;;;5444202;26;19924;-67
2024/05/03 00:31:25;;;;;;;;;;;15.00;99.90;;;;;;5442260;26;20062;-67
2024/05/03 00:33:51;;;;;;;53.00;34.22;;;15.00;99.90;;;;;;5437403;26;20506;-67
2024/05/03 00:36:16;;;;;;;;;;;15.00;99.90;;;;;;5465088;26;20009;-67
2024/05/03 00:38:42;;;;;;;55.08;36.80;;;15.00;99.90;;;;;;5454475;26;19956;-67
2024/05/03 00:41:07;;;;;;;;;;;15.00;99.90;;;;;;5436117;26;20329;-67
2024/05/03 00:43:33;;;;;;;55.00;35.53;;;15.00;99.90;;;;;;5464032;26;20354;-67
2024/05/03 00:45:59;;;;;;;;;;;15.00;99.90;;;;;;5459434;26;19998;-67
2024/05/03 00:48:26;;;;;;;60.97;36.88;;;15.00;99.90;;;;;;5467238;26;20859;-67
2024/05/03 00:50:53;;;;;;;53.00;36.38;;;15.00;99.90;;;;;;5432801;26;20596;-67
2024/05/03 00:53:19;;;;;;;59.70;37.83;;;15.00;99.90;;;;;;5432687;26;20966;-67
2024/05/03 00:55:44;;;;;;;58.10;36.60;;;15.00;99.90;;;;;;5461206;26;19994;-67
2024/05/03 00:58:10;;;;;;;;;;;15.10;99.90;;;;;;5463934;26;20479;-67
2024/05/03 01:00:39;;;;;;;55.13;37.38;;;15.10;99.90;;;;;;5459941;26;20345;-67
2024/05/03 01:03:05;;;;;;;54.40;36.75;;;15.10;99.90;;;;;;5466703;26;20584;-66
2024/05/03 01:05:31;;;;;;;51.38;36.90;;;15.10;99.90;;;;;;5462329;26;19990;-67
2024/05/03 01:07:57;;;;;;;58.45;37.67;;;15.10;99.90;;;;;;5432134;26;20010;-67
2024/05/03 01:10:23;;;;;;;57.17;39.47;;;15.10;99.90;;;;;;5467082;26;20007;-66
2024/05/03 01:12:51;;;;;;;57.65;37.95;;;15.10;99.90;;;;;;5442114;26;20031;-66
2024/05/03 01:15:17;;;;;;;59.47;38.67;;;15.10;99.90;;;;;;5462535;26;20026;-66
2024/05/03 01:17:42;;;;;;;62.33;39.67;;;15.10;99.90;;;;;;5462892;26;20356;-67
2024/05/03 01:20:08;;;;;;;;;;;15.00;99.90;;;;;;5460431;26;20008;-67
2024/05/03 01:22:42;;;;;;;61.15;38.67;;;15.10;99.90;;;;;;5434069;26;19936;-66
2024/05/03 01:25:08;;;;;;;70.05;42.15;;;15.10;99.90;;;;;;5426834;26;19998;-66
2024/05/03 01:27:34;;;;;;;65.90;39.95;;;15.00;99.90;;;;;;5463816;26;19994;-67
2024/05/03 01:29:59;;;;;;;64.25;40.60;;;15.00;99.90;;;;;;5459335;26;20059;-66
2024/05/03 01:32:25;;;;;;;68.22;42.95;;;15.00;99.90;;;;;;5437794;26;19998;-67
2024/05/03 01:34:50;;;;;;;;;;;15.00;99.90;;;;;;5460847;26;20021;-66
2024/05/03 01:37:16;;;;;;;72.13;41.92;;;15.00;99.90;;;;;;5436555;26;19933;-67
2024/05/03 01:39:42;;;;;;;;;;;15.00;99.90;;;;;;5429340;26;19995;-66
2024/05/03 01:42:07;;;;;;;61.92;41.83;;;15.00;99.90;;;;;;5445454;26;19923;-67
2024/05/03 01:44:33;;;;;;;71.20;43.38;;;14.90;99.90;;;;;;5460039;26;20008;-66
2024/05/03 01:46:58;;;;;;;;;;;15.00;99.90;;;;;;5467540;26;20020;-67
2024/05/03 01:49:24;;;;;;;75.28;44.47;;;14.90;99.90;;;;;;5461847;26;19932;-66
2024/05/03 01:51:49;;;;;;;;;;;14.90;99.90;;;;;;5462932;26;19999;-66
2024/05/03 01:54:15;;;;;;;77.90;44.80;;;14.90;99.90;;;;;;5467592;26;19931;-66
2024/05/03 01:56:40;;;;;;;;;;;14.90;99.90;;;;;;5444054;26;19994;-66
2024/05/03 01:59:06;;;;;;;75.18;43.97;;;14.90;99.90;;;;;;5466831;26;19924;-66
2024/05/03 02:01:31;;;;;;;;;;;14.90;99.90;;;;;;5465715;26;20313;-66
2024/05/03 02:03:57;;;;;;;74.15;44.83;;;14.80;99.90;;;;;;5465899;26;19932;-67
2024/05/03 02:06:23;;;;;;;;;;;14.80;99.90;;;;;;5462548;26;19991;-67
2024/05/03 02:08:48;;;;;;;75.95;44.92;;;14.80;99.90;;;;;;5462992;26;19992;-67
2024/05/03 02:11:16;;;;;;;69.88;43.50;;;14.70;99.90;;;;;;5466637;26;20017;-66
2024/05/03 02:13:41;;;;;;;71.35;43.42;;;14.80;99.90;;;;;;5465693;26;20068;-67
2024/05/03 02:16:08;;;;;;;73.88;47.67;;;14.70;99.90;;;;;;5432695;26;19998;-67
2024/05/03 02:18:33;;;;;;;71.05;44.50;;;14.70;99.90;;;;;;5463704;26;20071;-67
2024/05/03 02:21:00;;;;;;;69.25;43.33;;;14.70;99.90;;;;;;5442843;26;20002;-67
2024/05/03 02:23:26;;;;;;;76.63;45.20;;;14.80;99.90;;;;;;5463433;26;20813;-67
2024/05/03 02:25:51;;;;;;;74.05;44.15;;;14.80;99.90;;;;;;5461371;26;20006;-67
2024/05/03 02:28:17;;;;;;;;;;;14.80;99.90;;;;;;5441150;26;20463;-67
2024/05/03 02:30:42;;;;;;;73.82;43.75;;;14.80;99.90;;;;;;5480106;26;20738;-67
2024/05/03 02:33:08;;;;;;;;;;;14.80;99.90;;;;;;5461642;26;20006;-67
2024/05/03 02:35:35;;;;;;;70.13;42.75;;;14.80;99.90;;;;;;5460338;26;19945;-67
2024/05/03 02:38:01;;;;;;;73.10;44.05;;;14.80;99.90;;;;;;5435116;26;20003;-68
2024/05/03 02:40:26;;;;;;;;;;;14.80;99.90;;;;;;5468241;26;20002;-67
2024/05/03 02:42:52;;;;;;;73.68;43.63;;;14.80;99.90;;;;;;5446876;26;20355;-67
2024/05/03 02:45:17;;;;;;;78.82;44.72;;;14.80;99.90;;;;;;5467039;26;20013;-67
2024/05/03 02:47:43;;;;;;;71.20;43.55;;;14.80;99.90;;;;;;5462561;26;20014;-67
2024/05/03 02:50:09;;;;;;;;;;;14.80;99.90;;;;;;5434012;26;19994;-67
2024/05/03 02:52:34;;;;;;;72.13;44.10;;;14.80;99.90;;;;;;5461161;26;20299;-67
2024/05/03 02:54:59;;;;;;;;;;;14.90;99.90;;;;;;5433095;26;19997;-67
2024/05/03 02:57:25;;;;;;;78.00;45.28;;;14.90;99.90;;;;;;5463868;26;19930;-67
2024/05/03 02:59:50;;;;;;;;;;;14.90;99.90;;;;;;5406618;26;20005;-67
2024/05/03 03:02:16;;;;;;;79.38;46.03;;;14.90;99.90;;;;;;5462623;26;19964;-67
2024/05/03 03:04:41;;;;;;;;;;;14.90;99.90;;;;;;5467838;26;20013;-67
2024/05/03 03:07:08;;;;;;;80.93;46.45;;;14.90;99.90;;;;;;5461544;26;20018;-67
2024/05/03 03:09:36;;;;;;;85.15;47.47;;;14.90;99.90;;;;;;5467015;26;20074;-67
2024/05/03 03:12:05;;;;;;;79.15;47.45;;;14.90;99.90;;;;;;5470169;26;20010;-67
2024/05/03 03:14:31;;;;;;;84.40;49.33;;;14.90;99.90;;;;;;5437910;26;19998;-67
2024/05/03 03:16:56;;;;;;;88.05;48.50;;;14.90;99.90;;;;;;5461248;26;20396;-67
2024/05/03 03:19:26;;;;;;;;;;;14.90;99.90;;;;;;5465925;26;20033;-67
2024/05/03 03:21:51;;;;;;;83.88;45.53;;;14.90;99.90;;;;;;5465049;26;19938;-67
2024/05/03 03:24:18;;;;;;;83.35;47.72;;;14.90;99.90;;;;;;5466627;26;19999;-67
2024/05/03 03:26:45;;;;;;;81.90;47.25;;;14.90;99.90;;;;;;5436375;26;19994;-67
2024/05/03 03:29:10;;;;;;;91.88;47.65;;;14.90;99.90;;;;;;5433180;26;19998;-67
2024/05/03 03:31:42;;;;;;;84.75;47.15;;;15.00;99.90;;;;;;5468744;26;20452;-67
2024/05/03 03:34:11;;;;;;;84.40;46.63;;;15.00;99.90;;;;;;5459340;26;22306;-67
2024/05/03 03:36:37;;;;;;;78.07;45.58;;;14.90;99.90;;;;;;5457198;26;20041;-67
2024/05/03 03:39:03;;;;;;;80.72;44.25;;;14.90;99.90;;;;;;5464272;26;20029;-66
2024/05/03 03:41:28;;;;;;;;;;;14.90;99.90;;;;;;5437181;26;20460;-67
2024/05/03 03:43:54;;;;;;;80.43;42.08;;;14.80;99.90;;;;;;5458737;26;19939;-67
2024/05/03 03:46:20;;;;;;;;;;;14.90;99.90;;;;;;5458751;26;20422;-68
2024/05/03 03:48:46;;;;;;;80.30;44.28;;;14.90;99.90;;;;;;5432552;26;19932;-67
2024/05/03 03:51:14;;;;;;;76.95;44.35;;;15.00;99.90;;;;;;5438415;26;20479;-67
2024/05/03 03:53:39;;;;;;;79.38;43.63;;;14.90;99.90;;;;;;5468568;26;20044;-68
2024/05/03 03:56:05;;;;;;;84.13;45.95;;;14.90;99.90;;;;;;5436572;26;19998;-67
2024/05/03 03:58:31;;;;;;;;;;;14.90;99.90;;;;;;5467924;26;20010;-68
2024/05/03 04:00:56;;;;;;;82.13;43.03;;;14.90;99.90;;;;;;5460475;26;19928;-68
2024/05/03 04:03:22;;;;;;;;;;;14.90;99.90;;;;;;5471648;26;19998;-68
2024/05/03 04:05:47;;;;;;;77.95;42.97;;;14.90;99.90;;;;;;5470797;26;19924;-67
2024/05/03 04:08:14;;;;;;;;;;;14.80;99.90;;;;;;5427922;26;20007;-68
2024/05/03 04:10:40;;;;;;;82.75;44.42;;;14.80;99.90;;;;;;5466149;26;19927;-68
2024/05/03 04:13:05;;;;;;;79.60;45.17;;;14.90;99.90;;;;;;5428630;26;20065;-68
2024/05/03 04:15:31;;;;;;;;;;;14.80;99.90;;;;;;5438462;26;20068;-68
2024/05/03 04:17:56;;;;;;;79.68;43.85;;;14.90;99.90;;;;;;5470669;26;19931;-68
2024/05/03 04:20:22;;;;;;;81.30;44.75;;;14.80;99.90;;;;;;5455205;26;20298;-68
2024/05/03 04:22:48;;;;;;;;;;;14.80;99.90;;;;;;5436239;26;19998;-68
2024/05/03 04:25:13;;;;;;;84.25;45.28;;;14.80;99.90;;;;;;5456039;26;19931;-68
2024/05/03 04:27:39;;;;;;;90.65;45.10;;;14.80;99.90;;;;;;5435052;26;20022;-68
2024/05/03 04:30:05;;;;;;;;;;;14.80;99.90;;;;;;5437371;26;20030;-68
2024/05/03 04:32:31;;;;;;;84.72;43.83;;;14.90;99.90;;;;;;5458988;26;19993;-68
2024/05/03 04:34:58;;;;;;;;;;;14.90;99.90;;;;;;5466861;26;19995;-68
2024/05/03 04:37:23;;;;;;;86.47;43.78;;;14.80;99.90;;;;;;5437483;26;19924;-68
2024/05/03 04:39:49;;;;;;;76.07;40.70;;;14.80;99.90;;;;;;5455948;26;20042;-68
2024/05/03 04:42:15;;;;;;;;;;;14.80;99.90;;;;;;5457387;26;20070;-68
2024/05/03 04:44:42;;;;;;;69.18;38.42;;;14.80;99.90;;;;;;5434353;26;19932;-68
2024/05/03 04:47:08;;;;;;;72.68;39.83;;;14.70;99.90;;;;;;5460284;26;20050;-68
2024/05/03 04:49:33;;;;;;;71.10;40.70;;;14.70;99.90;;;;;;5472000;26;20353;-68
2024/05/03 04:51:59;;;;;;;;;;;14.60;99.90;;;;;;5463733;26;20036;-67
2024/05/03 04:54:24;;;;;;;68.25;39.50;;;14.60;99.90;;;;;;5462530;26;19931;-68
2024/05/03 04:56:50;;;;;;;;;;;14.60;99.90;;;;;;5469470;26;20362;-68
2024/05/03 04:59:15;;;;;;;67.32;36.95;;;14.60;99.90;;;;;;5465309;26;19931;-68
2024/05/03 05:01:41;;;;;;;;;;;14.60;99.90;;;;;;5464692;26;19990;-68
2024/05/03 05:04:06;;;;;;;57.80;34.25;;;14.60;99.90;;;;;;5425383;26;19924;-68
2024/05/03 05:06:32;;;;;;;;;;;14.50;99.90;;;;;;5458339;26;20124;-68
2024/05/03 05:08:58;;;;;;;57.38;33.35;;;14.60;99.90;;;;;;5463883;26;19931;-68
2024/05/03 05:11:23;;;;;;;51.80;33.17;;;14.60;99.90;;;;;;5433142;26;20063;-68
2024/05/03 05:13:50;;;;;;;50.30;32.00;;;14.60;99.90;;;;;;5463550;26;21767;-68
2024/05/03 05:16:15;;;;;;;44.20;29.92;;;14.60;99.90;;;;;;5435454;26;20001;-67
2024/05/03 05:18:41;;;;;;;48.08;30.65;;;14.50;99.90;;;;;;5456337;26;20039;-67
2024/05/03 05:24:07;;;;;;;44.50;28.17;;;14.60;99.90;;;;;;5351529;26;19941;-68
2024/05/03 05:26:33;;;;;;;44.08;27.50;;;14.60;99.90;;;;;;5408027;26;20026;-68
2024/05/03 05:28:58;;;;;;;;;;;14.60;99.90;;;;;;5462432;26;20013;-69
2024/05/03 05:31:25;;;;;;;39.83;27.80;;;14.60;99.90;;;;;;5461001;26;19928;-69
2024/05/03 05:33:51;;;;;;;43.92;29.63;;;14.60;99.90;;;;;;5458094;26;20107;-68
2024/05/03 05:36:26;;;;;;;;;;;14.60;99.90;;;;;;5463258;26;20049;-69
2024/05/03 05:38:57;;;;;;;41.25;28.38;;;14.60;99.90;;;;;;5471386;26;20712;-69
2024/05/03 05:41:24;;;;;;;39.05;27.02;;;14.60;99.90;;;;;;5460221;26;19994;-68
2024/05/03 05:43:49;;;;;;;41.67;28.65;;;14.60;99.90;;;;;;5445372;26;20414;-68
2024/05/03 05:46:15;;;;;;;45.60;28.58;;;14.60;99.90;;;;;;5470524;26;19994;-67
2024/05/03 05:48:41;;;;;;;;;;;14.60;99.90;;;;;;5471693;26;20051;-68
2024/05/03 05:51:06;;;;;;;38.30;26.25;;;14.60;99.90;;;;;;5463396;26;20522;-68
2024/05/03 05:53:33;;;;;;;;;;;14.60;99.90;;;;;;5469768;26;20009;-68
2024/05/03 05:56:00;;;;;;;41.70;27.85;;;14.50;99.90;;;;;;5465499;26;19932;-68
2024/05/03 05:58:26;;;;;;;36.45;25.90;;;14.60;99.90;;;;;;5469661;26;20397;-67
2024/05/03 06:00:52;;;;;;;35.80;23.75;;;14.60;99.90;;;;;;5467540;26;20021;-68
2024/05/03 06:03:17;;;;;;;;;;;14.60;99.90;;;;;;5443034;26;20469;-69
2024/05/03 06:05:43;;;;;;;30.00;21.20;;;14.60;99.90;;;;;;5438759;26;19924;-69
2024/05/03 06:08:09;;;;;;;;;;;14.60;99.90;;;;;;5465684;26;19995;-69
2024/05/03 06:10:37;;;;;;;25.90;19.98;;;14.50;99.90;;;;;;5438663;26;19924;-70
2024/05/03 06:13:03;;;;;;;27.25;20.30;;;14.50;99.90;;;;;;5469818;26;20005;-69
2024/05/03 06:15:29;;;;;;;25.95;19.15;;;14.50;99.90;;;;;;5461626;26;20537;-68
2024/05/03 06:17:54;;;;;;;27.02;20.92;;;14.50;99.90;;;;;;5469441;26;20009;-68
2024/05/03 06:20:20;;;;;;;;;;;14.50;99.90;;;;;;5463460;26;20091;-68
2024/05/03 06:22:45;;;;;;;25.35;18.55;;;14.50;99.90;;;;;;5462157;26;20360;-68
2024/05/03 06:25:11;;;;;;;;;;;14.50;99.90;;;;;;5466022;26;19998;-68
2024/05/03 06:27:37;;;;;;;22.15;17.02;;;14.50;99.90;;;;;;5439311;26;19924;-69
2024/05/03 06:30:03;;;;;;;;;;;14.50;99.90;;;;;;5425074;26;19997;-67
2024/05/03 06:32:29;;;;;;;25.10;16.38;;;14.40;99.90;;;;;;5461843;26;20427;-68
2024/05/03 06:34:54;;;;;;;;;;;14.40;99.90;;;;;;5462799;26;20003;-68
2024/05/03 06:37:24;;;;;;;19.92;14.35;;;14.40;99.90;;;;;;5453339;26;19929;-68
2024/05/03 06:39:50;;;;;;;16.95;14.63;;;14.40;99.90;;;;;;5428162;26;19994;-69
2024/05/03 06:42:16;;;;;;;20.67;14.57;;;14.30;99.90;;;;;;5425412;26;19998;-77
2024/05/03 06:44:41;;;;;;;18.00;14.15;;;14.30;99.90;;;;;;5433374;26;20007;-72
2024/05/03 06:47:09;;;;;;;15.65;13.02;;;14.30;99.90;;;;;;5432553;26;20012;-69
2024/05/03 06:49:34;;;;;;;15.32;12.60;;;14.30;99.90;;;;;;5462984;26;20007;-68
2024/05/03 06:52:01;;;;;;;15.43;12.40;;;14.30;99.90;;;;;;5437033;26;20069;-69
2024/05/03 06:54:27;;;;;;;18.23;11.55;;;14.30;99.90;;;;;;5467139;26;20001;-69
2024/05/03 06:56:53;;;;;;;14.50;10.82;;;14.20;99.90;;;;;;5436762;26;20009;-69
2024/05/03 06:59:21;;;;;;;13.85;10.60;;;14.20;99.90;;;;;;5433253;26;19994;-68
2024/05/03 07:01:50;;;;;;;13.55;10.90;;;14.20;99.90;;;;;;5464135;26;20020;-68
2024/05/03 07:04:15;;;;;;;15.50;10.48;;;14.20;99.90;;;;;;5465843;26;20016;-69
2024/05/03 07:06:41;;;;;;;10.80;9.00;;;14.20;99.90;;;;;;5465012;26;19995;-68
2024/05/03 07:09:06;;;;;;;10.45;8.45;;;14.10;99.90;;;;;;5467303;26;20007;-68
2024/05/03 07:11:32;;;;;;;11.15;7.80;;;14.10;99.90;;;;;;5442641;26;19994;-69
2024/05/03 07:13:58;;;;;;;9.80;7.15;;;14.10;99.90;;;;;;5429741;26;20002;-69
2024/05/03 07:16:23;;;;;;;;;;;14.00;99.90;;;;;;5433125;26;20016;-73
2024/05/03 07:18:49;;;;;;;10.00;6.50;;;14.00;99.90;;;;;;5443381;26;20078;-68
2024/05/03 07:21:14;;;;;;;;;;;14.00;99.90;;;;;;5461270;26;19995;-68
2024/05/03 07:23:44;;;;;;;9.43;6.18;;;13.90;99.90;;;;;;5469147;26;19924;-69
2024/05/03 07:26:10;;;;;;;10.88;6.50;;;13.90;99.90;;;;;;5438414;26;20005;-70
2024/05/03 07:28:36;;;;;;;8.00;6.20;;;13.90;99.90;;;;;;5464478;26;20045;-70
2024/05/03 07:31:02;;;;;;;6.63;5.20;;;13.90;99.90;;;;;;5434730;26;20006;-70
2024/05/03 07:33:28;;;;;;;7.57;4.90;;;13.80;99.90;;;;;;5432241;26;20042;-70
2024/05/03 07:35:53;;;;;;;6.03;4.72;;;13.90;99.90;;;;;;5436108;26;20010;-70
2024/05/03 07:38:19;;;;;;;6.07;4.45;;;13.90;99.90;;;;;;5440522;26;19990;-70
2024/05/03 07:40:46;;;;;;;;;;;13.90;99.90;;;;;;5435967;26;20018;-70
2024/05/03 07:43:11;;;;;;;4.43;4.00;;;13.80;99.90;;;;;;5454928;26;19931;-70
2024/05/03 07:45:37;;;;;;;5.65;4.25;;;13.80;99.90;;;;;;5459411;26;20246;-70
2024/05/03 07:48:04;;;;;;;;;;;13.70;99.90;;;;;;5462257;26;20532;-70
2024/05/03 07:50:29;;;;;;;11.93;4.95;;;13.70;99.90;;;;;;5438926;26;20075;-70
2024/05/03 07:52:57;;;;;;;6.75;4.88;;;13.80;99.90;;;;;;5437211;26;20017;-68
2024/05/03 07:55:22;;;;;;;8.45;4.68;;;13.80;99.90;;;;;;5438128;26;20018;-68
2024/05/03 07:57:48;;;;;;;4.47;3.60;;;13.80;99.90;;;;;;5466886;26;20017;-67
2024/05/03 08:00:14;;;;;;;7.80;3.72;;;13.80;99.90;;;;;;5468278;26;19995;-67
2024/05/03 08:02:39;;;;;;;6.07;4.30;;;13.70;99.90;;;;;;5440649;26;20002;-67
2024/05/03 08:05:05;;;;;;;4.32;3.75;;;13.70;99.90;;;;;;5469325;26;19998;-68
2024/05/03 08:07:32;;;;;;;5.70;4.20;;;13.70;99.90;;;;;;5464684;26;20017;-68
2024/05/03 08:09:57;;;;;;;6.30;4.32;;;13.70;99.90;;;;;;5443137;26;19998;-68
2024/05/03 08:12:23;;;;;;;4.45;3.92;;;13.80;99.90;;;;;;5439037;26;20336;-68
2024/05/03 08:14:49;;;;;;;5.47;4.20;;;13.80;99.90;;;;;;5435059;26;20033;-68
2024/05/03 08:17:14;;;;;;;5.25;4.30;;;13.80;99.90;;;;;;5441159;26;19998;-68
2024/05/03 08:19:40;;;;;;;6.88;4.03;;;13.80;99.90;;;;;;5440209;26;20009;-68
2024/05/03 08:22:06;;;;;;;5.18;3.95;;;13.80;99.90;;;;;;5438432;26;20006;-68
2024/05/03 08:24:32;;;;;;;3.80;3.40;;;13.70;99.90;;;;;;5435899;26;20468;-68
2024/05/03 08:27:00;;;;;;;4.07;3.47;;;13.70;99.90;;;;;;5475373;26;20009;-68
2024/05/03 08:29:26;;;;;;;4.35;3.20;;;13.70;99.90;;;;;;5470084;26;20008;-68
2024/05/03 08:31:52;;;;;;;3.50;3.20;;;13.70;99.90;;;;;;5474240;26;19994;-68
2024/05/03 08:34:18;;;;;;;3.40;3.00;;;13.60;99.90;;;;;;5475291;26;20013;-68
2024/05/03 08:36:43;;;;;;;3.90;3.20;;;13.60;99.90;;;;;;5473197;26;20121;-68
2024/05/03 08:39:09;;;;;;;2.75;2.45;;;13.50;99.90;;;;;;5440863;26;20014;-68
2024/05/03 08:42:02;;;;;;;2.58;2.38;;;13.60;99.90;;;;;;5462397;26;20031;-67
2024/05/03 08:44:32;;;;;;;3.08;2.60;;;13.60;99.90;;;;;;5460915;26;20006;-67
2024/05/03 08:47:04;;;;;;;2.83;2.60;;;13.60;99.90;;;;;;5422502;26;20017;-65
2024/05/03 08:49:33;;;;;;;4.63;2.65;;;13.70;99.90;;;;;;5439156;26;20003;-68
2024/05/03 08:52:00;;;;;;;3.72;2.70;;;13.80;99.90;;;;;;5467141;26;19994;-68
2024/05/03 08:54:27;;;;;;;2.88;2.65;;;13.80;99.90;;;;;;5435008;26;20005;-69
2024/05/03 08:56:53;;;;;;;2.72;2.42;;;13.80;99.90;;;;;;5440007;26;20006;-67
2024/05/03 08:59:19;;;;;;;4.13;3.08;;;13.80;99.90;;;;;;5470754;26;20377;-68
2024/05/03 09:01:47;;;;;;;;;;;13.80;99.90;;;;;;5470402;26;20092;-66
2024/05/03 09:04:13;;;;;;;7.18;3.20;;;13.80;99.90;;;;;;5475347;26;20350;-72
2024/05/03 09:06:45;;;;;;;3.83;3.42;;;13.80;99.90;;;;;;5461229;26;20042;-70
2024/05/03 09:09:12;;;;;;;3.92;3.40;;;13.80;99.90;;;;;;5445022;26;20051;-71
2024/05/03 09:11:38;;;;;;;4.93;4.10;;;13.80;99.90;;;;;;5472518;26;20012;-69
2024/05/03 09:14:03;;;;;;;6.47;4.28;;;13.70;99.90;;;;;;5432793;26;19991;-69
2024/05/03 09:16:30;;;;;;;;;;;13.70;99.90;;;;;;5464484;26;20524;-70
2024/05/03 09:18:56;;;;;;;4.90;4.40;;;13.70;99.90;;;;;;5465477;26;19993;-68
2024/05/03 09:21:21;;;;;;;;;;;13.60;99.90;;;;;;5460704;26;20002;-67
2024/05/03 09:23:47;;;;;;;8.60;5.57;;;13.60;99.90;;;;;;5463042;26;19931;-67
2024/05/03 09:26:13;;;;;;;8.30;6.05;;;13.50;99.90;;;;;;5469280;26;19998;-69
2024/05/03 09:28:46;;;;;;;7.00;5.78;;;13.50;99.90;;;;;;5445605;26;20006;-66
2024/05/03 09:31:22;;;;;;;5.68;5.18;;;13.50;99.90;;;;;;5462319;26;20106;-68
2024/05/03 09:33:50;;;;;;;5.10;4.60;;;13.40;99.90;;;;;;5466391;26;20391;-67
2024/05/03 09:36:15;;;;;;;7.80;5.13;;;13.30;99.90;;;;;;5465133;26;20227;-68
2024/05/03 09:38:41;;;;;;;5.03;4.53;;;13.30;99.90;;;;;;5457497;26;20376;-67
2024/05/03 09:41:07;;;;;;;;;;;13.20;99.90;;;;;;5454959;26;20099;-67
2024/05/03 09:43:32;;;;;;;4.57;4.18;;;13.20;99.90;;;;;;5463385;26;20270;-69
2024/05/03 09:45:59;;;;;;;5.20;4.60;;;13.20;99.90;;;;;;5462109;26;20018;-69
2024/05/03 09:48:29;;;;;;;5.45;4.57;;;13.10;99.90;;;;;;5469666;26;20473;-69
2024/05/03 09:50:57;;;;;;;6.57;4.78;;;13.00;99.90;;;;;;5454134;26;20510;-68
2024/05/03 09:53:27;;;;;;;5.18;4.68;;;13.00;99.90;;;;;;5435010;26;20026;-68
2024/05/03 09:56:00;;;;;;;5.25;4.72;;;13.00;99.90;;;;;;5460395;26;20005;-68
2024/05/03 09:58:52;;;;;;;5.60;4.85;;;13.00;99.90;;;;;;5460244;26;19991;-68
2024/05/03 10:01:23;;;;;;;6.32;4.68;;;12.90;99.90;;;;;;5468793;26;20071;-68
2024/05/03 10:03:51;;;;;;;5.88;4.60;;;12.90;99.90;;;;;;5466739;26;22043;-68
2024/05/03 10:06:19;;;;;;;6.00;5.50;;;12.90;99.90;;;;;;5440373;26;20006;-68
2024/05/03 10:08:45;;;;;;;6.72;5.20;;;12.80;99.90;;;;;;5461252;26;20357;-68
2024/05/03 10:11:12;;;;;;;6.45;5.85;;;12.80;99.90;;;;;;5438196;26;19998;-68
2024/05/03 10:13:42;;;;;;;8.63;6.10;;;12.70;99.90;;;;;;5466635;26;20002;-67
2024/05/03 10:16:09;;;;;;;8.00;7.15;;;12.80;99.90;;;;;;5435225;26;20146;-69
2024/05/03 10:18:36;;;;;;;8.02;7.22;;;12.80;99.90;;;;;;5430947;26;20038;-69
2024/05/03 10:21:02;;;;;;;8.00;7.30;;;12.80;99.90;;;;;;5436815;26;20010;-70
2024/05/03 10:23:28;;;;;;;7.93;7.13;;;12.80;99.90;;;;;;5430540;26;20391;-70
2024/05/03 10:25:54;;;;;;;7.38;6.75;;;12.70;99.90;;;;;;5456729;26;20015;-70
2024/05/03 10:28:20;;;;;;;8.27;7.47;;;12.70;99.90;;;;;;5428116;26;21376;-70
2024/05/03 10:30:50;;;;;;;7.93;6.90;;;12.70;99.90;;;;;;5422045;26;20332;-69
2024/05/03 10:33:21;;;;;;;7.75;6.95;;;12.70;99.90;;;;;;5437670;26;20003;-69
2024/05/03 10:35:49;;;;;;;7.50;6.80;;;12.70;99.90;;;;;;5469262;26;20401;-69
2024/05/03 10:38:20;;;;;;;7.05;6.28;;;12.60;99.90;;;;;;5463055;26;20029;-70
2024/05/03 10:40:48;;;;;;;7.68;6.45;;;12.60;99.90;;;;;;5471568;26;20017;-69
2024/05/03 10:43:13;;;;;;;8.10;6.25;;;12.60;99.90;;;;;;5469695;26;20517;-69
2024/05/03 10:45:39;;;;;;;8.43;7.50;;;12.50;99.90;;;;;;5468054;26;20029;-68
2024/05/03 10:48:06;;;;;;;9.05;7.20;;;12.50;99.90;;;;;;5421753;26;20649;-69
2024/05/03 10:50:32;;;;;;;8.43;7.53;;;12.50;99.90;;;;;;5454705;26;20002;-68
2024/05/03 10:52:59;;;;;;;9.82;8.80;;;12.60;99.90;;;;;;5471889;26;20009;-69
2024/05/03 10:55:25;;;;;;;9.73;8.82;;;12.50;99.90;;;;;;5471017;26;19994;-68
2024/05/03 10:57:51;;;;;;;8.80;8.00;;;12.60;99.90;;;;;;5473799;26;20075;-69
2024/05/03 11:00:18;;;;;;;10.13;9.13;;;12.60;99.90;;;;;;5445602;26;20345;-69
2024/05/03 11:02:45;;;;;;;9.60;8.60;;;12.60;99.90;;;;;;5450647;26;20010;-69
2024/05/03 11:05:11;;;;;;;9.60;8.70;;;12.60;99.90;;;;;;5450814;26;20003;-69
2024/05/03 11:07:44;;;;;;;9.75;8.80;;;12.70;99.90;;;;;;5447748;26;20041;-69
2024/05/03 11:10:15;;;;;;;10.57;9.48;;;12.70;99.90;;;;;;5481911;26;20024;-69
2024/05/03 11:12:41;;;;;;;10.70;9.70;;;12.70;99.90;;;;;;5483750;26;19990;-69
2024/05/03 11:15:07;;;;;;;10.77;9.75;;;12.70;99.90;;;;;;5445927;26;20038;-69
2024/05/03 11:17:33;;;;;;;;;;;12.70;99.90;;;;;;5449918;26;19994;-69
2024/05/03 11:19:59;;;;;;;10.73;9.50;;;12.70;99.90;;;;;;5453363;26;20406;-69
2024/05/03 11:22:29;;;;;;;9.05;8.15;;;12.60;99.90;;;;;;5475870;26;19998;-70
2024/05/03 11:25:04;;;;;;;8.63;7.82;;;12.60;99.90;;;;;;5469064;26;20044;-70
2024/05/03 11:27:31;;;;;;;8.57;7.63;;;12.60;99.90;;;;;;5474419;26;20010;-70
2024/05/03 11:29:56;;;;;;;8.30;7.50;;;12.60;99.90;;;;;;5464247;26;20336;-69
2024/05/03 11:32:29;;;;;;;8.93;7.00;;;12.60;99.90;;;;;;5446434;26;20038;-70
2024/05/03 11:34:59;;;;;;;9.02;7.30;;;12.50;99.90;;;;;;5473351;26;19998;-69
2024/05/03 11:37:25;;;;;;;8.77;7.88;;;12.50;99.90;;;;;;5441262;26;20020;-69
2024/05/03 11:39:56;;;;;;;10.13;9.18;;;12.40;99.90;;;;;;5477048;26;20329;-70
2024/05/03 11:42:22;;;;;;;10.50;8.90;;;12.50;99.90;;;;;;5448677;26;20022;-69
2024/05/03 11:44:48;;;;;;;10.82;9.40;;;12.40;99.90;;;;;;5445500;26;20067;-69
2024/05/03 11:47:13;;;;;;;10.20;9.13;;;12.40;99.90;;;;;;5475138;26;20420;-69
2024/05/03 11:49:39;;;;;;;9.77;8.88;;;12.40;99.90;;;;;;5462272;26;20451;-69
2024/05/03 11:52:05;;;;;;;12.60;8.68;;;12.40;99.90;;;;;;5441750;26;20080;-69
2024/05/03 11:54:30;;;;;;;12.30;8.68;;;12.40;99.90;;;;;;5448758;26;20002;-69
2024/05/03 11:56:56;;;;;;;11.57;7.78;;;12.30;99.90;;;;;;5470105;26;20477;-69
2024/05/03 11:59:22;;;;;;;7.35;6.68;;;12.40;99.90;;;;;;5475585;26;19998;-69
2024/05/03 12:01:47;;;;;;;6.85;6.15;;;12.30;99.90;;;;;;5471242;26;20033;-69
2024/05/03 12:04:13;;;;;;;9.98;5.82;;;12.30;99.90;;;;;;5449905;26;19994;-70
2024/05/03 12:06:38;;;;;;;6.57;5.72;;;12.30;99.90;;;;;;5477282;26;20578;-69
2024/05/03 12:09:04;;;;;;;7.75;5.85;;;12.30;99.90;;;;;;5478106;26;19998;-69
2024/05/03 12:11:29;;;;;;;6.85;5.88;;;12.30;99.90;;;;;;5474029;26;19998;-69
2024/05/03 12:13:55;;;;;;;6.40;5.80;;;12.30;99.90;;;;;;5472305;26;20005;-69
2024/05/03 12:16:21;;;;;;;6.93;5.85;;;12.40;99.90;;;;;;5467742;26;20010;-69
2024/05/03 12:18:46;;;;;;;7.30;6.53;;;12.40;99.90;;;;;;5451789;26;20013;-69
2024/05/03 12:21:12;;;;;;;7.53;5.60;;;12.40;99.90;;;;;;5461956;26;20002;-69
2024/05/03 12:23:38;;;;;;;5.75;5.22;;;12.40;99.90;;;;;;5476158;26;20013;-68
2024/05/03 12:26:03;;;;;;;6.60;5.43;;;12.50;99.90;;;;;;5460045;26;20026;-68
2024/05/03 12:28:29;;;;;;;9.68;5.60;;;12.60;99.90;;;;;;5472788;26;19998;-68
2024/05/03 12:30:55;;;;;;;5.20;4.22;;;12.60;99.90;;;;;;5440251;26;20077;-69
2024/05/03 12:33:20;;;;;;;4.72;4.22;;;12.60;99.90;;;;;;5467678;26;20027;-69
2024/05/03 12:35:46;;;;;;;4.80;4.10;;;12.60;99.90;;;;;;5472575;26;20017;-68
2024/05/03 12:38:12;;;;;;;5.03;4.35;;;12.60;99.90;;;;;;5472587;26;19994;-68
2024/05/03 12:40:37;;;;;;;8.57;4.15;;;12.60;99.90;;;;;;5437726;26;20014;-68
2024/05/03 12:43:03;;;;;;;9.38;4.00;;;12.70;99.90;;;;;;5445745;26;19991;-68
2024/05/03 12:45:28;;;;;;;3.83;3.45;;;12.70;99.90;;;;;;5466096;26;20376;-68
2024/05/03 12:47:54;;;;;;;5.13;3.40;;;12.70;99.90;;;;;;5473311;26;20022;-69
2024/05/03 12:50:20;;;;;;;8.60;3.70;;;12.70;99.90;;;;;;5445986;26;20070;-69
2024/05/03 12:52:45;;;;;;;4.68;3.83;;;12.70;99.90;;;;;;5452292;26;20476;-69